sensor_id;sensor_type;location;lat;lon;timestamp;P1;durP1;ratioP1;P2;durP2;ratioP2
70026;SDS011;57506;50.092;15.804;2023-09-19T00:00:16;24.05;;;22.65;;
70026;SDS011;57506;50.092;15.804;2023-09-19T00:02:45;23.33;;;21.92;;
70026;SDS011;57506;50.092;15.804;2023-09-19T00:05:12;21.07;;;19.77;;
70026;SDS011;57506;50.092;15.804;2023-09-19T00:07:38;20.80;;;19.50;;
70026;SDS011;57506;50.092;15.804;2023-09-19T00:10:04;23.58;;;22.17;;
70026;SDS011;57506;50.092;15.804;2023-09-19T00:12:30;21.87;;;20.57;;
70026;SDS011;57506;50.092;15.804;2023-09-19T00:14:55;23.90;;;22.50;;
70026;SDS011;57506;50.092;15.804;2023-09-19T00:17:21;23.67;;;22.27;;
70026;SDS011;57506;50.092;15.804;2023-09-19T00:19:47;22.97;;;21.57;;
70026;SDS011;57506;50.092;15.804;2023-09-19T00:22:16;23.17;;;21.77;;
70026;SDS011;57506;50.092;15.804;2023-09-19T00:24:44;23.50;;;22.10;;
70026;SDS011;57506;50.092;15.804;2023-09-19T00:27:09;23.77;;;22.37;;
70026;SDS011;57506;50.092;15.804;2023-09-19T00:29:35;23.47;;;22.07;;
70026;SDS011;57506;50.092;15.804;2023-09-19T00:32:00;23.15;;;21.75;;
70026;SDS011;57506;50.092;15.804;2023-09-19T00:34:28;23.57;;;22.17;;
70026;SDS011;57506;50.092;15.804;2023-09-19T00:36:55;23.85;;;22.45;;
70026;SDS011;57506;50.092;15.804;2023-09-19T00:39:21;22.63;;;21.23;;
70026;SDS011;57506;50.092;15.804;2023-09-19T00:41:47;24.40;;;22.90;;
70026;SDS011;57506;50.092;15.804;2023-09-19T00:44:12;23.60;;;22.20;;
70026;SDS011;57506;50.092;15.804;2023-09-19T00:46:38;23.02;;;21.63;;
70026;SDS011;57506;50.092;15.804;2023-09-19T00:49:04;23.27;;;21.88;;
70026;SDS011;57506;50.092;15.804;2023-09-19T00:51:32;21.17;;;19.87;;
70026;SDS011;57506;50.092;15.804;2023-09-19T00:54:00;23.20;;;21.80;;
70026;SDS011;57506;50.092;15.804;2023-09-19T00:56:27;22.40;;;21.02;;
70026;SDS011;57506;50.092;15.804;2023-09-19T00:58:53;21.63;;;20.33;;
70026;SDS011;57506;50.092;15.804;2023-09-19T01:01:19;22.40;;;21.03;;
70026;SDS011;57506;50.092;15.804;2023-09-19T01:03:45;23.05;;;21.65;;
70026;SDS011;57506;50.092;15.804;2023-09-19T01:06:11;22.15;;;20.85;;
70026;SDS011;57506;50.092;15.804;2023-09-19T01:08:37;20.67;;;19.37;;
70026;SDS011;57506;50.092;15.804;2023-09-19T01:11:13;21.67;;;20.38;;
70026;SDS011;57506;50.092;15.804;2023-09-19T01:13:58;22.07;;;20.77;;
70026;SDS011;57506;50.092;15.804;2023-09-19T01:22:31;21.23;;;19.92;;
70026;SDS011;57506;50.092;15.804;2023-09-19T01:31:01;21.00;;;19.70;;
70026;SDS011;57506;50.092;15.804;2023-09-19T01:33:28;22.88;;;21.48;;
70026;SDS011;57506;50.092;15.804;2023-09-19T01:36:16;20.70;;;19.40;;
70026;SDS011;57506;50.092;15.804;2023-09-19T01:38:41;21.93;;;20.63;;
70026;SDS011;57506;50.092;15.804;2023-09-19T01:41:11;20.95;;;19.65;;
70026;SDS011;57506;50.092;15.804;2023-09-19T01:43:41;21.45;;;20.15;;
70026;SDS011;57506;50.092;15.804;2023-09-19T01:51:10;23.00;;;21.60;;
70026;SDS011;57506;50.092;15.804;2023-09-19T01:56:32;22.60;;;21.20;;
70026;SDS011;57506;50.092;15.804;2023-09-19T01:59:13;22.45;;;21.05;;
70026;SDS011;57506;50.092;15.804;2023-09-19T02:01:45;22.48;;;21.08;;
70026;SDS011;57506;50.092;15.804;2023-09-19T02:04:11;21.83;;;20.53;;
70026;SDS011;57506;50.092;15.804;2023-09-19T02:06:40;22.27;;;20.95;;
70026;SDS011;57506;50.092;15.804;2023-09-19T02:09:06;21.33;;;20.02;;
70026;SDS011;57506;50.092;15.804;2023-09-19T02:11:32;22.00;;;20.70;;
70026;SDS011;57506;50.092;15.804;2023-09-19T02:13:58;21.83;;;20.52;;
70026;SDS011;57506;50.092;15.804;2023-09-19T02:16:24;21.43;;;20.13;;
70026;SDS011;57506;50.092;15.804;2023-09-19T02:18:50;20.63;;;19.35;;
70026;SDS011;57506;50.092;15.804;2023-09-19T02:21:16;21.63;;;20.33;;
70026;SDS011;57506;50.092;15.804;2023-09-19T02:23:42;21.75;;;20.45;;
70026;SDS011;57506;50.092;15.804;2023-09-19T02:26:09;20.67;;;19.37;;
70026;SDS011;57506;50.092;15.804;2023-09-19T02:28:37;21.42;;;20.13;;
70026;SDS011;57506;50.092;15.804;2023-09-19T02:31:02;20.83;;;19.52;;
70026;SDS011;57506;50.092;15.804;2023-09-19T02:33:30;20.90;;;19.60;;
70026;SDS011;57506;50.092;15.804;2023-09-19T02:35:57;20.15;;;18.95;;
70026;SDS011;57506;50.092;15.804;2023-09-19T02:38:24;20.92;;;19.63;;
70026;SDS011;57506;50.092;15.804;2023-09-19T02:40:51;21.92;;;20.63;;
70026;SDS011;57506;50.092;15.804;2023-09-19T02:43:22;21.90;;;20.60;;
70026;SDS011;57506;50.092;15.804;2023-09-19T02:45:48;20.70;;;19.40;;
70026;SDS011;57506;50.092;15.804;2023-09-19T02:48:15;19.85;;;18.65;;
70026;SDS011;57506;50.092;15.804;2023-09-19T02:50:41;21.40;;;20.10;;
70026;SDS011;57506;50.092;15.804;2023-09-19T02:53:07;21.27;;;19.98;;
70026;SDS011;57506;50.092;15.804;2023-09-19T02:55:33;22.10;;;20.77;;
70026;SDS011;57506;50.092;15.804;2023-09-19T02:57:59;20.90;;;19.60;;
70026;SDS011;57506;50.092;15.804;2023-09-19T03:00:26;20.95;;;19.65;;
70026;SDS011;57506;50.092;15.804;2023-09-19T03:02:55;21.73;;;20.43;;
70026;SDS011;57506;50.092;15.804;2023-09-19T03:05:22;19.67;;;18.47;;
70026;SDS011;57506;50.092;15.804;2023-09-19T03:07:48;21.40;;;20.10;;
70026;SDS011;57506;50.092;15.804;2023-09-19T03:10:17;21.60;;;20.30;;
70026;SDS011;57506;50.092;15.804;2023-09-19T03:12:44;21.88;;;20.58;;
70026;SDS011;57506;50.092;15.804;2023-09-19T03:15:09;21.60;;;20.30;;
70026;SDS011;57506;50.092;15.804;2023-09-19T03:17:35;21.40;;;20.10;;
70026;SDS011;57506;50.092;15.804;2023-09-19T03:20:01;19.73;;;18.53;;
70026;SDS011;57506;50.092;15.804;2023-09-19T03:22:27;21.63;;;20.33;;
70026;SDS011;57506;50.092;15.804;2023-09-19T03:24:53;19.02;;;17.83;;
70026;SDS011;57506;50.092;15.804;2023-09-19T03:27:19;21.27;;;19.97;;
70026;SDS011;57506;50.092;15.804;2023-09-19T03:29:45;22.45;;;21.05;;
70026;SDS011;57506;50.092;15.804;2023-09-19T03:32:12;21.55;;;20.25;;
70026;SDS011;57506;50.092;15.804;2023-09-19T03:34:38;21.70;;;20.40;;
70026;SDS011;57506;50.092;15.804;2023-09-19T03:37:11;20.70;;;19.40;;
70026;SDS011;57506;50.092;15.804;2023-09-19T03:39:37;19.35;;;18.15;;
70026;SDS011;57506;50.092;15.804;2023-09-19T03:42:02;21.00;;;19.70;;
70026;SDS011;57506;50.092;15.804;2023-09-19T03:44:32;22.13;;;20.83;;
70026;SDS011;57506;50.092;15.804;2023-09-19T03:46:58;21.80;;;20.50;;
70026;SDS011;57506;50.092;15.804;2023-09-19T03:49:23;21.83;;;20.52;;
70026;SDS011;57506;50.092;15.804;2023-09-19T03:51:49;22.20;;;20.90;;
70026;SDS011;57506;50.092;15.804;2023-09-19T03:54:15;21.90;;;20.60;;
70026;SDS011;57506;50.092;15.804;2023-09-19T03:56:42;22.40;;;21.00;;
70026;SDS011;57506;50.092;15.804;2023-09-19T03:59:08;20.83;;;19.52;;
70026;SDS011;57506;50.092;15.804;2023-09-19T04:01:34;22.25;;;20.90;;
70026;SDS011;57506;50.092;15.804;2023-09-19T04:04:00;21.75;;;20.45;;
70026;SDS011;57506;50.092;15.804;2023-09-19T04:06:33;22.60;;;21.20;;
70026;SDS011;57506;50.092;15.804;2023-09-19T04:09:00;20.67;;;19.38;;
70026;SDS011;57506;50.092;15.804;2023-09-19T04:11:26;22.02;;;20.73;;
70026;SDS011;57506;50.092;15.804;2023-09-19T04:13:52;20.05;;;18.85;;
70026;SDS011;57506;50.092;15.804;2023-09-19T04:16:18;21.73;;;20.43;;
70026;SDS011;57506;50.092;15.804;2023-09-19T04:18:44;21.80;;;20.50;;
70026;SDS011;57506;50.092;15.804;2023-09-19T04:21:10;22.00;;;20.70;;
70026;SDS011;57506;50.092;15.804;2023-09-19T04:23:35;22.70;;;21.30;;
70026;SDS011;57506;50.092;15.804;2023-09-19T04:26:01;21.20;;;19.90;;
70026;SDS011;57506;50.092;15.804;2023-09-19T04:28:28;21.60;;;20.30;;
70026;SDS011;57506;50.092;15.804;2023-09-19T04:30:54;22.00;;;20.70;;
70026;SDS011;57506;50.092;15.804;2023-09-19T04:33:20;21.23;;;19.92;;
70026;SDS011;57506;50.092;15.804;2023-09-19T04:35:48;20.63;;;19.33;;
70026;SDS011;57506;50.092;15.804;2023-09-19T04:38:14;22.27;;;20.95;;
70026;SDS011;57506;50.092;15.804;2023-09-19T04:40:40;22.42;;;21.02;;
70026;SDS011;57506;50.092;15.804;2023-09-19T04:43:06;20.20;;;19.00;;
70026;SDS011;57506;50.092;15.804;2023-09-19T04:45:32;19.87;;;18.67;;
70026;SDS011;57506;50.092;15.804;2023-09-19T04:47:58;22.00;;;20.70;;
70026;SDS011;57506;50.092;15.804;2023-09-19T04:50:23;21.83;;;20.53;;
70026;SDS011;57506;50.092;15.804;2023-09-19T04:52:51;21.65;;;20.35;;
70026;SDS011;57506;50.092;15.804;2023-09-19T04:55:18;22.75;;;21.35;;
70026;SDS011;57506;50.092;15.804;2023-09-19T04:57:44;22.10;;;20.80;;
70026;SDS011;57506;50.092;15.804;2023-09-19T05:00:14;22.20;;;20.90;;
70026;SDS011;57506;50.092;15.804;2023-09-19T05:02:42;20.73;;;19.42;;
70026;SDS011;57506;50.092;15.804;2023-09-19T05:05:08;21.80;;;20.50;;
70026;SDS011;57506;50.092;15.804;2023-09-19T05:07:42;21.00;;;19.70;;
70026;SDS011;57506;50.092;15.804;2023-09-19T05:10:09;20.98;;;19.67;;
70026;SDS011;57506;50.092;15.804;2023-09-19T05:12:37;21.60;;;20.30;;
70026;SDS011;57506;50.092;15.804;2023-09-19T05:15:04;20.27;;;19.00;;
70026;SDS011;57506;50.092;15.804;2023-09-19T05:17:30;20.47;;;19.20;;
70026;SDS011;57506;50.092;15.804;2023-09-19T05:19:56;21.48;;;20.17;;
70026;SDS011;57506;50.092;15.804;2023-09-19T05:22:42;22.73;;;21.33;;
70026;SDS011;57506;50.092;15.804;2023-09-19T05:25:09;21.17;;;19.87;;
70026;SDS011;57506;50.092;15.804;2023-09-19T05:27:35;21.55;;;20.25;;
70026;SDS011;57506;50.092;15.804;2023-09-19T05:30:01;22.13;;;20.83;;
70026;SDS011;57506;50.092;15.804;2023-09-19T05:32:26;21.80;;;20.50;;
70026;SDS011;57506;50.092;15.804;2023-09-19T05:34:52;21.00;;;19.70;;
70026;SDS011;57506;50.092;15.804;2023-09-19T05:37:18;20.55;;;19.27;;
70026;SDS011;57506;50.092;15.804;2023-09-19T05:39:45;22.42;;;21.02;;
70026;SDS011;57506;50.092;15.804;2023-09-19T05:42:10;21.25;;;19.95;;
70026;SDS011;57506;50.092;15.804;2023-09-19T05:44:36;22.00;;;20.70;;
70026;SDS011;57506;50.092;15.804;2023-09-19T05:47:02;22.42;;;21.05;;
70026;SDS011;57506;50.092;15.804;2023-09-19T05:49:28;22.03;;;20.73;;
70026;SDS011;57506;50.092;15.804;2023-09-19T05:51:54;22.15;;;20.85;;
70026;SDS011;57506;50.092;15.804;2023-09-19T05:54:21;21.83;;;20.53;;
70026;SDS011;57506;50.092;15.804;2023-09-19T05:56:47;22.23;;;20.92;;
70026;SDS011;57506;50.092;15.804;2023-09-19T05:59:14;21.30;;;20.00;;
70026;SDS011;57506;50.092;15.804;2023-09-19T06:01:42;22.15;;;20.83;;
70026;SDS011;57506;50.092;15.804;2023-09-19T06:04:08;20.03;;;18.83;;
70026;SDS011;57506;50.092;15.804;2023-09-19T06:06:34;21.40;;;20.10;;
70026;SDS011;57506;50.092;15.804;2023-09-19T06:09:04;22.13;;;20.83;;
70026;SDS011;57506;50.092;15.804;2023-09-19T06:11:31;20.38;;;19.15;;
70026;SDS011;57506;50.092;15.804;2023-09-19T06:13:59;21.55;;;20.25;;
70026;SDS011;57506;50.092;15.804;2023-09-19T06:16:27;21.63;;;20.33;;
70026;SDS011;57506;50.092;15.804;2023-09-19T06:18:54;22.53;;;21.13;;
70026;SDS011;57506;50.092;15.804;2023-09-19T06:21:21;21.92;;;20.63;;
70026;SDS011;57506;50.092;15.804;2023-09-19T06:23:48;22.52;;;21.13;;
70026;SDS011;57506;50.092;15.804;2023-09-19T06:26:13;22.50;;;21.10;;
70026;SDS011;57506;50.092;15.804;2023-09-19T06:28:39;22.97;;;21.57;;
70026;SDS011;57506;50.092;15.804;2023-09-19T06:31:06;22.58;;;21.17;;
70026;SDS011;57506;50.092;15.804;2023-09-19T06:33:35;21.67;;;20.37;;
70026;SDS011;57506;50.092;15.804;2023-09-19T06:36:04;21.63;;;20.33;;
70026;SDS011;57506;50.092;15.804;2023-09-19T06:38:32;22.02;;;20.73;;
70026;SDS011;57506;50.092;15.804;2023-09-19T06:41:01;23.20;;;21.80;;
70026;SDS011;57506;50.092;15.804;2023-09-19T06:43:30;22.88;;;21.48;;
70026;SDS011;57506;50.092;15.804;2023-09-19T06:45:56;22.57;;;21.17;;
70026;SDS011;57506;50.092;15.804;2023-09-19T06:48:22;21.25;;;19.95;;
70026;SDS011;57506;50.092;15.804;2023-09-19T06:50:50;23.15;;;21.75;;
70026;SDS011;57506;50.092;15.804;2023-09-19T06:53:17;22.77;;;21.38;;
70026;SDS011;57506;50.092;15.804;2023-09-19T06:55:43;22.00;;;20.70;;
70026;SDS011;57506;50.092;15.804;2023-09-19T06:58:10;20.70;;;19.40;;
70026;SDS011;57506;50.092;15.804;2023-09-19T07:00:36;22.05;;;20.75;;
70026;SDS011;57506;50.092;15.804;2023-09-19T07:03:04;22.25;;;20.95;;
70026;SDS011;57506;50.092;15.804;2023-09-19T07:05:33;21.50;;;20.20;;
70026;SDS011;57506;50.092;15.804;2023-09-19T07:08:03;21.60;;;20.30;;
70026;SDS011;57506;50.092;15.804;2023-09-19T07:10:31;23.20;;;21.80;;
70026;SDS011;57506;50.092;15.804;2023-09-19T07:15:27;23.02;;;21.63;;
70026;SDS011;57506;50.092;15.804;2023-09-19T07:17:53;22.93;;;21.53;;
70026;SDS011;57506;50.092;15.804;2023-09-19T07:20:21;21.60;;;20.30;;
70026;SDS011;57506;50.092;15.804;2023-09-19T07:22:47;23.23;;;21.83;;
70026;SDS011;57506;50.092;15.804;2023-09-19T07:25:15;22.17;;;20.85;;
70026;SDS011;57506;50.092;15.804;2023-09-19T07:27:41;22.25;;;20.92;;
70026;SDS011;57506;50.092;15.804;2023-09-19T07:30:08;23.93;;;22.53;;
70026;SDS011;57506;50.092;15.804;2023-09-19T07:32:35;22.55;;;21.17;;
70026;SDS011;57506;50.092;15.804;2023-09-19T07:35:03;25.00;;;23.40;;
70026;SDS011;57506;50.092;15.804;2023-09-19T07:37:33;23.83;;;22.42;;
70026;SDS011;57506;50.092;15.804;2023-09-19T07:39:59;22.08;;;20.77;;
70026;SDS011;57506;50.092;15.804;2023-09-19T07:42:26;23.40;;;21.10;;
70026;SDS011;57506;50.092;15.804;2023-09-19T07:44:52;23.25;;;21.85;;
70026;SDS011;57506;50.092;15.804;2023-09-19T07:47:19;23.63;;;22.23;;
70026;SDS011;57506;50.092;15.804;2023-09-19T07:49:48;23.48;;;22.08;;
70026;SDS011;57506;50.092;15.804;2023-09-19T07:52:14;23.13;;;21.73;;
70026;SDS011;57506;50.092;15.804;2023-09-19T07:54:40;24.23;;;22.73;;
70026;SDS011;57506;50.092;15.804;2023-09-19T07:57:09;23.40;;;22.00;;
70026;SDS011;57506;50.092;15.804;2023-09-19T07:59:35;23.70;;;22.30;;
70026;SDS011;57506;50.092;15.804;2023-09-19T08:02:03;23.90;;;22.50;;
70026;SDS011;57506;50.092;15.804;2023-09-19T08:04:30;24.35;;;22.85;;
70026;SDS011;57506;50.092;15.804;2023-09-19T08:06:58;22.97;;;21.57;;
70026;SDS011;57506;50.092;15.804;2023-09-19T08:09:24;23.60;;;22.20;;
70026;SDS011;57506;50.092;15.804;2023-09-19T08:11:49;23.67;;;22.27;;
70026;SDS011;57506;50.092;15.804;2023-09-19T08:14:18;24.88;;;23.27;;
70026;SDS011;57506;50.092;15.804;2023-09-19T08:16:44;20.98;;;19.40;;
70026;SDS011;57506;50.092;15.804;2023-09-19T08:19:09;23.93;;;22.53;;
70026;SDS011;57506;50.092;15.804;2023-09-19T08:21:35;23.77;;;22.38;;
70026;SDS011;57506;50.092;15.804;2023-09-19T08:24:01;24.40;;;22.90;;
70026;SDS011;57506;50.092;15.804;2023-09-19T08:26:30;25.07;;;23.57;;
70026;SDS011;57506;50.092;15.804;2023-09-19T08:28:56;23.60;;;22.20;;
70026;SDS011;57506;50.092;15.804;2023-09-19T08:31:22;21.80;;;20.50;;
70026;SDS011;57506;50.092;15.804;2023-09-19T08:33:48;24.50;;;23.00;;
70026;SDS011;57506;50.092;15.804;2023-09-19T08:36:16;24.65;;;23.15;;
70026;SDS011;57506;50.092;15.804;2023-09-19T08:38:42;23.17;;;21.77;;
70026;SDS011;57506;50.092;15.804;2023-09-19T08:41:08;25.20;;;23.70;;
70026;SDS011;57506;50.092;15.804;2023-09-19T08:43:34;22.75;;;21.35;;
70026;SDS011;57506;50.092;15.804;2023-09-19T08:48:34;22.87;;;21.47;;
70026;SDS011;57506;50.092;15.804;2023-09-19T08:51:07;25.38;;;23.77;;
70026;SDS011;57506;50.092;15.804;2023-09-19T08:56:33;23.35;;;21.88;;
70026;SDS011;57506;50.092;15.804;2023-09-19T08:59:00;25.05;;;23.45;;
70026;SDS011;57506;50.092;15.804;2023-09-19T09:01:29;22.70;;;21.30;;
70026;SDS011;57506;50.092;15.804;2023-09-19T09:03:57;25.65;;;23.95;;
70026;SDS011;57506;50.092;15.804;2023-09-19T09:06:24;25.73;;;23.80;;
70026;SDS011;57506;50.092;15.804;2023-09-19T09:08:51;23.67;;;22.17;;
70026;SDS011;57506;50.092;15.804;2023-09-19T09:11:17;24.67;;;23.17;;
70026;SDS011;57506;50.092;15.804;2023-09-19T09:13:44;25.33;;;23.73;;
70026;SDS011;57506;50.092;15.804;2023-09-19T09:16:11;23.83;;;22.42;;
70026;SDS011;57506;50.092;15.804;2023-09-19T09:18:39;24.60;;;23.10;;
70026;SDS011;57506;50.092;15.804;2023-09-19T09:21:06;23.73;;;22.27;;
70026;SDS011;57506;50.092;15.804;2023-09-19T09:23:32;24.83;;;23.17;;
70026;SDS011;57506;50.092;15.804;2023-09-19T09:25:58;23.43;;;22.03;;
70026;SDS011;57506;50.092;15.804;2023-09-19T09:28:28;25.15;;;23.55;;
70026;SDS011;57506;50.092;15.804;2023-09-19T09:30:56;23.65;;;22.17;;
70026;SDS011;57506;50.092;15.804;2023-09-19T09:33:32;23.77;;;22.27;;
70026;SDS011;57506;50.092;15.804;2023-09-19T09:35:59;24.43;;;22.93;;
70026;SDS011;57506;50.092;15.804;2023-09-19T09:38:28;26.42;;;24.83;;
70026;SDS011;57506;50.092;15.804;2023-09-19T09:40:58;25.10;;;23.50;;
70026;SDS011;57506;50.092;15.804;2023-09-19T09:43:37;24.90;;;23.40;;
70026;SDS011;57506;50.092;15.804;2023-09-19T09:46:12;25.02;;;23.52;;
70026;SDS011;57506;50.092;15.804;2023-09-19T09:48:46;24.63;;;23.13;;
70026;SDS011;57506;50.092;15.804;2023-09-19T09:51:50;25.10;;;23.50;;
70026;SDS011;57506;50.092;15.804;2023-09-19T09:54:24;25.35;;;23.75;;
70026;SDS011;57506;50.092;15.804;2023-09-19T09:57:11;24.15;;;22.65;;
70026;SDS011;57506;50.092;15.804;2023-09-19T10:02:30;24.83;;;23.33;;
70026;SDS011;57506;50.092;15.804;2023-09-19T10:05:14;25.30;;;23.00;;
70026;SDS011;57506;50.092;15.804;2023-09-19T10:07:40;25.52;;;23.92;;
70026;SDS011;57506;50.092;15.804;2023-09-19T10:10:13;23.40;;;22.00;;
70026;SDS011;57506;50.092;15.804;2023-09-19T10:12:42;25.15;;;23.65;;
70026;SDS011;57506;50.092;15.804;2023-09-19T10:15:11;24.13;;;22.63;;
70026;SDS011;57506;50.092;15.804;2023-09-19T10:17:42;24.67;;;23.08;;
70026;SDS011;57506;50.092;15.804;2023-09-19T10:20:10;24.83;;;23.33;;
70026;SDS011;57506;50.092;15.804;2023-09-19T10:23:03;25.85;;;24.25;;
70026;SDS011;57506;50.092;15.804;2023-09-19T10:25:40;26.17;;;24.58;;
70026;SDS011;57506;50.092;15.804;2023-09-19T10:28:08;24.63;;;23.13;;
70026;SDS011;57506;50.092;15.804;2023-09-19T10:30:42;23.92;;;22.52;;
70026;SDS011;57506;50.092;15.804;2023-09-19T10:33:13;25.50;;;23.90;;
70026;SDS011;57506;50.092;15.804;2023-09-19T10:35:43;25.15;;;23.65;;
70026;SDS011;57506;50.092;15.804;2023-09-19T10:38:11;24.52;;;23.02;;
70026;SDS011;57506;50.092;15.804;2023-09-19T10:40:38;23.37;;;21.97;;
70026;SDS011;57506;50.092;15.804;2023-09-19T10:43:17;24.55;;;23.05;;
70026;SDS011;57506;50.092;15.804;2023-09-19T10:45:44;24.17;;;22.67;;
70026;SDS011;57506;50.092;15.804;2023-09-19T10:48:15;24.23;;;22.65;;
70026;SDS011;57506;50.092;15.804;2023-09-19T10:53:13;23.77;;;22.37;;
70026;SDS011;57506;50.092;15.804;2023-09-19T10:55:42;23.55;;;22.15;;
70026;SDS011;57506;50.092;15.804;2023-09-19T10:58:24;25.63;;;24.13;;
70026;SDS011;57506;50.092;15.804;2023-09-19T11:01:02;23.30;;;21.90;;
70026;SDS011;57506;50.092;15.804;2023-09-19T11:03:37;24.60;;;23.10;;
70026;SDS011;57506;50.092;15.804;2023-09-19T11:06:17;24.40;;;22.90;;
70026;SDS011;57506;50.092;15.804;2023-09-19T11:08:53;24.98;;;23.48;;
70026;SDS011;57506;50.092;15.804;2023-09-19T11:30:31;25.58;;;24.00;;
70026;SDS011;57506;50.092;15.804;2023-09-19T11:46:33;24.60;;;23.10;;
70026;SDS011;57506;50.092;15.804;2023-09-19T11:49:08;23.67;;;22.25;;
70026;SDS011;57506;50.092;15.804;2023-09-19T11:51:41;25.90;;;24.40;;
70026;SDS011;57506;50.092;15.804;2023-09-19T11:54:12;26.23;;;24.63;;
70026;SDS011;57506;50.092;15.804;2023-09-19T11:56:55;25.47;;;23.97;;
70026;SDS011;57506;50.092;15.804;2023-09-19T11:59:23;26.65;;;25.05;;
70026;SDS011;57506;50.092;15.804;2023-09-19T12:02:16;25.65;;;24.15;;
70026;SDS011;57506;50.092;15.804;2023-09-19T12:04:53;26.52;;;24.67;;
70026;SDS011;57506;50.092;15.804;2023-09-19T12:07:19;24.80;;;23.30;;
70026;SDS011;57506;50.092;15.804;2023-09-19T12:12:28;26.20;;;24.60;;
70026;SDS011;57506;50.092;15.804;2023-09-19T12:14:55;25.95;;;24.38;;
70026;SDS011;57506;50.092;15.804;2023-09-19T12:17:40;25.83;;;24.27;;
70026;SDS011;57506;50.092;15.804;2023-09-19T12:20:07;25.23;;;23.63;;
70026;SDS011;57506;50.092;15.804;2023-09-19T12:22:43;26.52;;;24.92;;
70026;SDS011;57506;50.092;15.804;2023-09-19T12:25:11;23.67;;;22.27;;
70026;SDS011;57506;50.092;15.804;2023-09-19T12:27:42;26.13;;;24.52;;
70026;SDS011;57506;50.092;15.804;2023-09-19T12:30:09;26.10;;;24.50;;
70026;SDS011;57506;50.092;15.804;2023-09-19T12:32:39;25.73;;;24.23;;
70026;SDS011;57506;50.092;15.804;2023-09-19T12:35:07;25.13;;;23.63;;
70026;SDS011;57506;50.092;15.804;2023-09-19T12:37:36;26.23;;;24.63;;
70026;SDS011;57506;50.092;15.804;2023-09-19T12:40:13;25.83;;;24.33;;
70026;SDS011;57506;50.092;15.804;2023-09-19T12:42:47;25.55;;;24.05;;
70026;SDS011;57506;50.092;15.804;2023-09-19T12:45:14;25.50;;;24.00;;
70026;SDS011;57506;50.092;15.804;2023-09-19T12:53:44;25.67;;;24.17;;
70026;SDS011;57506;50.092;15.804;2023-09-19T12:56:16;25.30;;;23.80;;
70026;SDS011;57506;50.092;15.804;2023-09-19T12:58:53;24.85;;;23.35;;
70026;SDS011;57506;50.092;15.804;2023-09-19T13:01:24;24.92;;;23.42;;
70026;SDS011;57506;50.092;15.804;2023-09-19T13:06:47;23.77;;;22.38;;
70026;SDS011;57506;50.092;15.804;2023-09-19T13:09:15;24.95;;;23.45;;
70026;SDS011;57506;50.092;15.804;2023-09-19T13:11:42;25.38;;;23.88;;
70026;SDS011;57506;50.092;15.804;2023-09-19T13:14:25;23.10;;;21.70;;
70026;SDS011;57506;50.092;15.804;2023-09-19T13:19:46;23.88;;;22.45;;
70026;SDS011;57506;50.092;15.804;2023-09-19T13:25:17;25.85;;;24.35;;
70026;SDS011;57506;50.092;15.804;2023-09-19T13:27:44;25.02;;;23.52;;
70026;SDS011;57506;50.092;15.804;2023-09-19T13:30:16;25.93;;;24.33;;
70026;SDS011;57506;50.092;15.804;2023-09-19T13:32:42;25.40;;;23.90;;
70026;SDS011;57506;50.092;15.804;2023-09-19T13:35:08;25.05;;;23.55;;
70026;SDS011;57506;50.092;15.804;2023-09-19T13:37:35;25.30;;;23.80;;
70026;SDS011;57506;50.092;15.804;2023-09-19T13:40:04;25.42;;;23.92;;
70026;SDS011;57506;50.092;15.804;2023-09-19T13:42:30;26.60;;;25.00;;
70026;SDS011;57506;50.092;15.804;2023-09-19T13:44:57;25.77;;;24.27;;
70026;SDS011;57506;50.092;15.804;2023-09-19T13:47:22;23.52;;;22.13;;
70026;SDS011;57506;50.092;15.804;2023-09-19T13:49:50;26.30;;;24.70;;
70026;SDS011;57506;50.092;15.804;2023-09-19T13:52:19;25.50;;;24.00;;
70026;SDS011;57506;50.092;15.804;2023-09-19T13:54:46;26.10;;;24.50;;
70026;SDS011;57506;50.092;15.804;2023-09-19T13:57:12;27.30;;;25.70;;
70026;SDS011;57506;50.092;15.804;2023-09-19T13:59:38;25.67;;;24.17;;
70026;SDS011;57506;50.092;15.804;2023-09-19T14:02:04;26.25;;;24.65;;
70026;SDS011;57506;50.092;15.804;2023-09-19T14:04:32;26.38;;;24.77;;
70026;SDS011;57506;50.092;15.804;2023-09-19T14:06:59;26.27;;;24.60;;
70026;SDS011;57506;50.092;15.804;2023-09-19T14:09:26;27.58;;;25.67;;
70026;SDS011;57506;50.092;15.804;2023-09-19T14:11:52;24.17;;;22.73;;
70026;SDS011;57506;50.092;15.804;2023-09-19T14:14:18;26.73;;;25.13;;
70026;SDS011;57506;50.092;15.804;2023-09-19T14:16:45;26.47;;;24.87;;
70026;SDS011;57506;50.092;15.804;2023-09-19T14:19:11;26.23;;;24.63;;
70026;SDS011;57506;50.092;15.804;2023-09-19T14:21:36;24.97;;;23.47;;
70026;SDS011;57506;50.092;15.804;2023-09-19T14:24:04;25.38;;;23.85;;
70026;SDS011;57506;50.092;15.804;2023-09-19T14:26:34;26.23;;;24.63;;
70026;SDS011;57506;50.092;15.804;2023-09-19T14:29:00;24.52;;;23.02;;
70026;SDS011;57506;50.092;15.804;2023-09-19T14:31:25;25.40;;;23.90;;
70026;SDS011;57506;50.092;15.804;2023-09-19T14:33:55;25.27;;;23.77;;
70026;SDS011;57506;50.092;15.804;2023-09-19T14:36:22;25.38;;;23.88;;
70026;SDS011;57506;50.092;15.804;2023-09-19T14:38:51;25.92;;;24.42;;
70026;SDS011;57506;50.092;15.804;2023-09-19T14:41:22;25.30;;;23.80;;
70026;SDS011;57506;50.092;15.804;2023-09-19T14:43:48;24.25;;;22.75;;
70026;SDS011;57506;50.092;15.804;2023-09-19T14:46:14;26.83;;;25.23;;
70026;SDS011;57506;50.092;15.804;2023-09-19T14:48:41;24.55;;;23.05;;
70026;SDS011;57506;50.092;15.804;2023-09-19T14:51:07;25.50;;;24.00;;
70026;SDS011;57506;50.092;15.804;2023-09-19T14:53:34;24.03;;;22.60;;
70026;SDS011;57506;50.092;15.804;2023-09-19T14:56:01;24.20;;;22.70;;
70026;SDS011;57506;50.092;15.804;2023-09-19T14:58:30;25.65;;;24.15;;
70026;SDS011;57506;50.092;15.804;2023-09-19T15:01:05;25.73;;;24.20;;
70026;SDS011;57506;50.092;15.804;2023-09-19T15:03:32;24.95;;;23.45;;
70026;SDS011;57506;50.092;15.804;2023-09-19T15:06:01;27.53;;;25.27;;
70026;SDS011;57506;50.092;15.804;2023-09-19T15:08:30;24.42;;;22.92;;
70026;SDS011;57506;50.092;15.804;2023-09-19T15:10:56;25.60;;;24.10;;
70026;SDS011;57506;50.092;15.804;2023-09-19T15:13:23;24.77;;;23.27;;
70026;SDS011;57506;50.092;15.804;2023-09-19T15:15:58;26.10;;;24.55;;
70026;SDS011;57506;50.092;15.804;2023-09-19T15:18:24;24.17;;;22.70;;
70026;SDS011;57506;50.092;15.804;2023-09-19T15:20:50;23.65;;;22.25;;
70026;SDS011;57506;50.092;15.804;2023-09-19T15:23:16;26.27;;;24.67;;
70026;SDS011;57506;50.092;15.804;2023-09-19T15:25:50;23.95;;;22.52;;
70026;SDS011;57506;50.092;15.804;2023-09-19T15:28:15;40.20;;;37.92;;
70026;SDS011;57506;50.092;15.804;2023-09-19T15:30:41;23.90;;;22.50;;
70026;SDS011;57506;50.092;15.804;2023-09-19T15:33:06;26.63;;;25.03;;
70026;SDS011;57506;50.092;15.804;2023-09-19T15:35:32;23.77;;;22.37;;
70026;SDS011;57506;50.092;15.804;2023-09-19T15:37:58;25.75;;;24.25;;